Terminal Aerodrome Forecast
Issued by NWS Quad Cities IA IL

Home | Current Version | Previous Version | Text Only | Print | Product List | Glossary On
Versions: 1 2 3 4 5 6 7 8 9 10 11 12 13 14
000
FTUS43 KDVN 192340
TAFMLI
TAF
KMLI 192340Z 2000/2024 13006KT P6SM BKN200
     FM201200 13008KT 5SM BR BKN200
     FM201500 15012KT 4SM BR OVC020
     FM201900 15014G22KT 4SM -SHRA BR OVC015=

USA.gov is the U.S. government's official web portal to all federal, state and local government web resources and services.